Monday, July 23, 2018, 10:58 AM EDT
Back to Local

KORE, Orange, Orange Municipal Airport

Location: Orange, MA, United States Lat: 42.572
Local Time: 10:58 AM EDT (14:58 GMT) Lon: -72.278
Time Zone: US/Eastern Elev: 554 ft

Show me the last for .
Show Decoded

2018-07-23 09:52 METAR KORE 231352Z AUTO 16009KT 130V190 10SM BKN016 BKN020 OVC029 26/23 A3021
                 RMK AO2 RAE03 SLP226 P0000 T02560228 =
2018-07-23 09:02 METAR KORE 231302Z AUTO 15007KT 8SM -RA BKN016 OVC024 25/23 A3019 RMK AO2 P0000
                 T02500228 =
2018-07-23 08:52 METAR KORE 231252Z AUTO 15005KT 2SM -RA BR BKN021 BKN027 OVC035 24/22 A3019 RMK
                 AO2 VIS 1 1/2V5 RAE1155B13E22B39 SLP221 P0002 T02440222 =
2018-07-23 07:52 METAR KORE 231152Z AUTO 15007KT 3SM -RA BR FEW013 BKN018 OVC026 24/22 A3018 RMK
                 AO2 RAB13 SLP218 P0016 60020 70074 T02390222 10244 20233 51010 =
2018-07-23 07:44 METAR KORE 231144Z AUTO 11005KT 1 3/4SM +RA BR FEW011 SCT019 OVC026 24/22 A3018
                 RMK AO2 RAB13 P0015 T02390222 =
2018-07-23 07:36 METAR KORE 231136Z AUTO 12005KT 8SM -RA FEW013 BKN021 OVC028 24/22 A3018 RMK AO2
                 RAB13 P0009 T02390222 =
2018-07-23 07:29 METAR KORE 231129Z AUTO 13005KT 2SM -RA BR SCT013 BKN023 OVC028 24/22 A3018 RMK
                 AO2 RAB13 P0009 T02390222 =
2018-07-23 07:25 METAR KORE 231125Z AUTO 13005KT 1 1/4SM +RA BR SCT013 OVC025 24/22 A3017 RMK AO2
                 RAB13 P0009 T02390222 =
2018-07-23 07:22 METAR KORE 231122Z AUTO 14006KT 1SM +RA BR BKN014 BKN022 OVC028 24/22 A3018 RMK
                 AO2 RAB13 P0008 T02390222 =
2018-07-23 07:18 METAR KORE 231118Z AUTO 14007KT 1 3/4SM RA BR BKN014 BKN022 OVC030 24/22 A3018
                 RMK AO2 RAB13 P0004 T02390222 =
2018-07-23 07:10 METAR KORE 231110Z AUTO 13007KT 10SM BKN014 BKN019 OVC024 24/22 A3018 RMK AO2
                 T02440222 =
2018-07-23 06:52 METAR KORE 231052Z AUTO 13005KT 10SM BKN016 OVC021 24/22 A3017 RMK AO2
                 RAB0954E27 SLP214 P0003 T02390222 =
2018-07-23 05:52 METAR KORE 230952Z AUTO 15003KT 10SM FEW019 BKN025 BKN030 24/22 A3016 RMK AO2
                 RAB35E47 SLP211 P0000 T02390222 =
2018-07-23 04:52 METAR KORE 230852Z AUTO 13005KT 10SM FEW013 SCT019 OVC027 24/22 A3015 RMK AO2
                 SLP207 60001 T02390222 53003 =
2018-07-23 04:35 METAR KORE 230835Z AUTO 14003KT 10SM SCT013 BKN020 OVC027 24/22 A3015 RMK AO2
                 T02390222 =
2018-07-23 04:03 METAR KORE 230803Z AUTO 00000KT 10SM BKN013 OVC021 24/22 A3014 RMK AO2 T02390222
                 =
2018-07-23 03:52 METAR KORE 230752Z AUTO 07003KT 10SM BKN015 OVC021 23/22 A3014 RMK AO2 RAE0659
                 SLP204 P0000 T02330222 =
2018-07-23 02:52 METAR KORE 230652Z AUTO 15005KT 10SM -RA SCT013 BKN020 OVC055 24/22 A3014 RMK
                 AO2 RAE16B34 SLP202 P0001 T02390222 =
2018-07-23 01:52 METAR KORE 230552Z AUTO 00000KT 5SM -RA BR FEW007 SCT014 OVC021 23/22 A3014 RMK
                 AO2 RAB0453 SLP204 P0024 60041 T02330222 10244 20228 56003 =
2018-07-23 01:44 METAR KORE 230544Z AUTO 23004KT 4SM -RA BR BKN014 OVC021 23/22 A3014 RMK AO2
                 RAB0453 P0023 T02330222 =
2018-07-23 01:32 METAR KORE 230532Z AUTO 00000KT 5SM RA BR SCT012 OVC018 23/22 A3014 RMK AO2
                 RAB0453 P0020 T02330222 =
2018-07-23 01:25 METAR KORE 230525Z AUTO 16003KT 2 1/2SM +RA BR BKN015 BKN020 OVC026 23/22 A3014
                 RMK AO2 VIS 1 3/4V5 RAB0453 P0020 T02330222 =
2018-07-23 01:18 METAR KORE 230518Z AUTO 12003KT 1 3/4SM +RA BR FEW011 BKN017 OVC027 23/22 A3014
                 RMK AO2 VIS 1 1/4V3 RAB0453 P0017 T02330217 =
2018-07-23 01:11 METAR KORE 230511Z AUTO 11003KT 2 1/2SM +RA BR BKN014 OVC020 23/22 A3014 RMK AO2
                 RAB0453 P0009 T02280222 =
2018-07-23 00:52 METAR KORE 230452Z AUTO 00000KT 10SM BKN016 OVC055 23/22 A3014 RMK AO2 SLP204
                 T02330217 402780183 =
2018-07-23 00:24 METAR KORE 230424Z AUTO 17003KT 10SM BKN014 BKN030 OVC055 23/22 A3014 RMK AO2
                 T02330217 =
2018-07-22 23:52 METAR KORE 230352Z AUTO 12003KT 10SM SCT018 BKN038 23/22 A3014 RMK AO2 RAE09
                 SLP205 P0001 T02280217 =
2018-07-22 22:52 METAR KORE 230252Z AUTO 00000KT 10SM -RA BKN015 BKN026 OVC036 23/21 A3015 RMK
                 AO2 SLP208 P0004 60016 T02280211 51010 =
2018-07-22 22:27 METAR KORE 230227Z AUTO 00000KT 10SM -RA FEW016 BKN021 OVC032 23/21 A3015 RMK
                 AO2 P0003 T02280211 =
2018-07-22 22:17 METAR KORE 230217Z AUTO 00000KT 4SM -RA BR SCT023 BKN030 OVC048 23/21 A3015 RMK
                 AO2 P0003 T02280211 =
2018-07-22 21:52 METAR KORE 230152Z AUTO 00000KT 5SM -RA BR FEW018 BKN024 OVC029 23/21 A3015 RMK
                 AO2 RAB0056E27B44 SLP208 P0007 T02280211 =
2018-07-22 21:40 METAR KORE 230140Z AUTO 17003KT 10SM FEW007 BKN026 OVC033 23/21 A3015 RMK AO2
                 RAB0056E27 P0006 T02280211 =
2018-07-22 21:30 METAR KORE 230130Z AUTO 00000KT 10SM FEW007 BKN030 OVC040 23/21 A3015 RMK AO2
                 RAB0056E27 P0006 T02280211 =
2018-07-22 21:13 METAR KORE 230113Z AUTO 00000KT 5SM RA BR FEW018 BKN030 OVC040 23/21 A3014 RMK
                 AO2 RAB0056 P0005 T02280211 =
2018-07-22 20:52 METAR KORE 230052Z AUTO 13004KT 10SM OVC020 23/21 A3014 RMK AO2 RAB2355E18
                 SLP205 P0005 T02280211 =
2018-07-22 20:12 METAR KORE 230012Z AUTO 15004KT 3SM -RA BR BKN018 OVC027 23/21 A3013 RMK AO2
                 RAB2355 P0005 T02280211 =
2018-07-22 20:01 METAR KORE 230001Z AUTO 15006KT 1 3/4SM +RA FEW017 OVC029 23/21 A3013 RMK AO2
                 RAB2355 P0003 T02330206 =
2018-07-22 19:52 METAR KORE 222352Z AUTO 13010G15KT 10SM FEW024 BKN029 OVC038 24/20 A3012 RMK AO2
                 RAB32E45 SLP198 P0000 60000 T02440200 10278 20244 53015 =
2018-07-22 18:52 METAR KORE 222252Z AUTO 12004KT 10SM FEW022 26/21 A3010 RMK AO2 SLP190 T02560206
                 =
2018-07-22 17:52 METAR KORE 222152Z AUTO 13008KT 10SM SCT020 SCT027 26/21 A3009 RMK AO2 SLP188
                 T02560211 =
2018-07-22 17:40 METAR KORE 222140Z AUTO 14012G16KT 10SM BKN021 BKN026 BKN045 26/21 A3009 RMK AO2
                 T02610211 =
2018-07-22 17:31 METAR KORE 222131Z AUTO 13009KT 10SM SCT022 SCT028 BKN037 27/21 A3008 RMK AO2
                 T02670211 =
2018-07-22 17:01 METAR KORE 222101Z AUTO 12009KT 10SM BKN021 BKN029 BKN046 27/21 A3008 RMK AO2
                 T02670211 =
2018-07-22 16:52 METAR KORE 222052Z AUTO 13011KT 10SM SCT021 BKN033 BKN043 27/21 A3008 RMK AO2
                 SLP182 T02670211 53002 =
2018-07-22 16:38 METAR KORE 222038Z AUTO 12008KT 10SM SCT023 BKN030 OVC035 27/22 A3007 RMK AO2
                 T02720217 =
2018-07-22 15:59 METAR KORE 221959Z AUTO 11008KT 10SM BKN022 BKN029 OVC070 27/22 A3007 RMK AO2
                 T02670217 =
2018-07-22 15:52 METAR KORE 221952Z AUTO 13005KT 10SM SCT025 BKN032 BKN055 27/22 A3007 RMK AO2
                 SLP180 T02720217 =
2018-07-22 15:15 METAR KORE 221915Z AUTO 16010KT 10SM FEW026 BKN040 OVC065 27/21 A3006 RMK AO2
                 T02720211 =
2018-07-22 14:52 METAR KORE 221852Z AUTO 18007KT 10SM BKN024 BKN039 27/21 A3006 RMK AO2 SLP178
                 T02720211 =
2018-07-22 14:29 METAR KORE 221829Z AUTO 16008KT 10SM BKN023 BKN033 27/21 A3006 RMK AO2 T02670211
                 =
2018-07-22 14:18 METAR KORE 221818Z AUTO 17012KT 10SM SCT025 BKN033 BKN046 27/21 A3006 RMK AO2
                 T02670206 =
2018-07-22 13:52 METAR KORE 221752Z AUTO 16009G18KT 10SM BKN022 OVC028 26/21 A3007 RMK AO2
                 RAB31E48 SLP180 P0000 60013 T02610206 10261 20189 53006 =
2018-07-22 13:39 METAR KORE 221739Z AUTO 17012G21KT 8SM -RA SCT024 BKN029 OVC043 25/21 A3007 RMK
                 AO2 RAB31 P0000 T02500206 =
2018-07-22 13:25 METAR KORE 221725Z AUTO 16009KT 10SM BKN030 BKN036 OVC043 26/21 A3006 RMK AO2
                 T02610206 =
2018-07-22 12:52 METAR KORE 221652Z AUTO 17007KT 10SM BKN027 OVC037 26/20 A3006 RMK AO2 SLP176
                 T02610200 =
2018-07-22 11:52 METAR KORE 221552Z AUTO 15006G15KT 10SM BKN022 OVC029 25/20 A3005 RMK AO2 SLP173
                 T02500200 =
2018-07-22 11:03 METAR KORE 221503Z AUTO 00000KT 10SM FEW009 BKN015 OVC021 22/20 A3005 RMK AO2
                 T02170200 =

Support USWX by starting your Amazon purchase here.